sensor_id;sensor_type;location;lat;lon;timestamp;pressure;altitude;pressure_sealevel;temperature;humidity
28354;BME280;15603;50.878;8.036;2024-01-30T00:01:25;141649.88;;;-6.91;100.00
28354;BME280;15603;50.878;8.036;2024-01-30T00:03:52;141635.47;;;-6.97;100.00
28354;BME280;15603;50.878;8.036;2024-01-30T00:06:20;141628.31;;;-7.00;100.00
28354;BME280;15603;50.878;8.036;2024-01-30T00:08:51;141618.72;;;-7.04;100.00
28354;BME280;15603;50.878;8.036;2024-01-30T00:11:18;141615.13;;;-7.05;100.00
28354;BME280;15603;50.878;8.036;2024-01-30T00:13:45;141613.94;;;-7.06;100.00
28354;BME280;15603;50.878;8.036;2024-01-30T00:16:22;141331.16;;;-8.27;100.00
28354;BME280;15603;50.878;8.036;2024-01-30T00:18:50;141585.13;;;-7.18;100.00
28354;BME280;15603;50.878;8.036;2024-01-30T00:21:18;141577.97;;;-7.21;100.00
28354;BME280;15603;50.878;8.036;2024-01-30T00:23:45;141467.69;;;-7.68;100.00
28354;BME280;15603;50.878;8.036;2024-01-30T00:26:13;141582.75;;;-7.19;100.00
28354;BME280;15603;50.878;8.036;2024-01-30T00:28:42;141580.34;;;-7.20;100.00
28354;BME280;15603;50.878;8.036;2024-01-30T00:31:09;141465.34;;;-7.70;100.00
28354;BME280;15603;50.878;8.036;2024-01-30T00:33:40;141586.38;;;-7.18;100.00
28354;BME280;15603;50.878;8.036;2024-01-30T00:36:08;141558.75;;;-7.30;100.00
28354;BME280;15603;50.878;8.036;2024-01-30T00:38:37;141570.75;;;-7.24;100.00
28354;BME280;15603;50.878;8.036;2024-01-30T00:41:04;141542.00;;;-7.37;100.00
28354;BME280;15603;50.878;8.036;2024-01-30T00:43:31;141568.38;;;-7.25;100.00
28354;BME280;15603;50.878;8.036;2024-01-30T00:45:59;141542.00;;;-7.37;100.00
28354;BME280;15603;50.878;8.036;2024-01-30T00:48:26;141426.97;;;-7.86;100.00
28354;BME280;15603;50.878;8.036;2024-01-30T00:50:53;141570.75;;;-7.24;100.00
28354;BME280;15603;50.878;8.036;2024-01-30T00:53:21;141573.19;;;-7.23;100.00
28354;BME280;15603;50.878;8.036;2024-01-30T00:55:48;141556.38;;;-7.31;100.00
28354;BME280;15603;50.878;8.036;2024-01-30T00:58:15;141443.75;;;-7.79;100.00
28354;BME280;15603;50.878;8.036;2024-01-30T01:00:43;141539.59;;;-7.38;100.00
28354;BME280;15603;50.878;8.036;2024-01-30T01:03:11;141513.22;;;-7.49;100.00
28354;BME280;15603;50.878;8.036;2024-01-30T01:05:38;141508.44;;;-7.51;100.00
28354;BME280;15603;50.878;8.036;2024-01-30T01:08:06;141501.28;;;-7.54;100.00
28354;BME280;15603;50.878;8.036;2024-01-30T01:10:33;141508.44;;;-7.51;100.00
28354;BME280;15603;50.878;8.036;2024-01-30T01:13:00;141494.06;;;-7.57;100.00
28354;BME280;15603;50.878;8.036;2024-01-30T01:15:27;141498.84;;;-7.55;100.00
28354;BME280;15603;50.878;8.036;2024-01-30T01:17:57;141486.84;;;-7.60;100.00
28354;BME280;15603;50.878;8.036;2024-01-30T01:20:24;141470.13;;;-7.67;100.00
28354;BME280;15603;50.878;8.036;2024-01-30T01:22:51;141468.88;;;-7.68;100.00
28354;BME280;15603;50.878;8.036;2024-01-30T01:25:19;141410.19;;;-7.93;100.00
28354;BME280;15603;50.878;8.036;2024-01-30T01:27:47;141479.69;;;-7.63;100.00
28354;BME280;15603;50.878;8.036;2024-01-30T01:30:18;141483.31;;;-7.62;100.00
28354;BME280;15603;50.878;8.036;2024-01-30T01:32:49;141513.22;;;-7.49;100.00
28354;BME280;15603;50.878;8.036;2024-01-30T01:35:24;141506.06;;;-7.52;100.00
28354;BME280;15603;50.878;8.036;2024-01-30T01:37:52;141506.06;;;-7.52;100.00
28354;BME280;15603;50.878;8.036;2024-01-30T01:40:26;141484.47;;;-7.61;100.00
28354;BME280;15603;50.878;8.036;2024-01-30T01:42:56;141477.28;;;-7.64;100.00
28354;BME280;15603;50.878;8.036;2024-01-30T01:45:24;141467.69;;;-7.68;100.00
28354;BME280;15603;50.878;8.036;2024-01-30T01:47:52;141282.13;;;-8.48;100.00
28354;BME280;15603;50.878;8.036;2024-01-30T01:50:21;141455.72;;;-7.74;100.00
28354;BME280;15603;50.878;8.036;2024-01-30T01:52:50;141470.13;;;-7.67;100.00
28354;BME280;15603;50.878;8.036;2024-01-30T01:55:19;141480.88;;;-7.63;100.00
28354;BME280;15603;50.878;8.036;2024-01-30T01:57:53;141386.25;;;-8.03;100.00
28354;BME280;15603;50.878;8.036;2024-01-30T02:00:20;141468.88;;;-7.68;100.00
28354;BME280;15603;50.878;8.036;2024-01-30T02:02:49;141460.53;;;-7.72;100.00
28354;BME280;15603;50.878;8.036;2024-01-30T02:05:16;141436.56;;;-7.82;100.00
28354;BME280;15603;50.878;8.036;2024-01-30T02:07:43;141421.00;;;-7.88;100.00
28354;BME280;15603;50.878;8.036;2024-01-30T02:10:11;141441.34;;;-7.80;100.00
28354;BME280;15603;50.878;8.036;2024-01-30T02:12:39;141464.09;;;-7.70;100.00
28354;BME280;15603;50.878;8.036;2024-01-30T02:15:06;141436.56;;;-7.82;100.00
28354;BME280;15603;50.878;8.036;2024-01-30T02:17:35;141455.72;;;-7.74;100.00
28354;BME280;15603;50.878;8.036;2024-01-30T02:20:02;141436.56;;;-7.82;100.00
28354;BME280;15603;50.878;8.036;2024-01-30T02:22:32;141429.38;;;-7.85;100.00
28354;BME280;15603;50.878;8.036;2024-01-30T02:25:01;141417.41;;;-7.90;100.00
28354;BME280;15603;50.878;8.036;2024-01-30T02:27:28;141410.19;;;-7.93;100.00
28354;BME280;15603;50.878;8.036;2024-01-30T02:29:55;141393.44;;;-8.00;100.00
28354;BME280;15603;50.878;8.036;2024-01-30T02:32:23;141387.44;;;-8.03;100.00
28354;BME280;15603;50.878;8.036;2024-01-30T02:34:50;141391.03;;;-8.01;100.00
28354;BME280;15603;50.878;8.036;2024-01-30T02:37:17;141398.25;;;-7.98;100.00
28354;BME280;15603;50.878;8.036;2024-01-30T02:39:44;141403.03;;;-7.96;100.00
28354;BME280;15603;50.878;8.036;2024-01-30T02:42:11;141400.63;;;-7.97;100.00
28354;BME280;15603;50.878;8.036;2024-01-30T02:44:38;141344.34;;;-8.21;100.00
28354;BME280;15603;50.878;8.036;2024-01-30T02:47:05;141379.03;;;-8.06;100.00
28354;BME280;15603;50.878;8.036;2024-01-30T02:49:32;141362.31;;;-8.14;100.00
28354;BME280;15603;50.878;8.036;2024-01-30T02:52:00;141369.47;;;-8.11;100.00
28354;BME280;15603;50.878;8.036;2024-01-30T02:54:27;141352.75;;;-8.18;100.00
28354;BME280;15603;50.878;8.036;2024-01-30T02:56:54;141331.16;;;-8.27;100.00
28354;BME280;15603;50.878;8.036;2024-01-30T02:59:21;141345.53;;;-8.21;100.00
28354;BME280;15603;50.878;8.036;2024-01-30T03:01:49;141347.91;;;-8.20;100.00
28354;BME280;15603;50.878;8.036;2024-01-30T03:04:17;141345.53;;;-8.21;100.00
28354;BME280;15603;50.878;8.036;2024-01-30T03:06:45;141338.31;;;-8.24;100.00
28354;BME280;15603;50.878;8.036;2024-01-30T03:09:16;141345.53;;;-8.21;100.00
28354;BME280;15603;50.878;8.036;2024-01-30T03:11:44;141368.28;;;-8.11;100.00
28354;BME280;15603;50.878;8.036;2024-01-30T03:14:11;141385.06;;;-8.04;100.00
28354;BME280;15603;50.878;8.036;2024-01-30T03:16:38;141292.88;;;-8.43;100.00
28354;BME280;15603;50.878;8.036;2024-01-30T03:19:06;141430.56;;;-7.84;100.00
28354;BME280;15603;50.878;8.036;2024-01-30T03:21:37;141424.59;;;-7.87;100.00
28354;BME280;15603;50.878;8.036;2024-01-30T03:24:04;141411.41;;;-7.93;100.00
28354;BME280;15603;50.878;8.036;2024-01-30T03:26:32;141395.81;;;-7.99;100.00
28354;BME280;15603;50.878;8.036;2024-01-30T03:28:59;141388.66;;;-8.02;100.00
28354;BME280;15603;50.878;8.036;2024-01-30T03:31:26;141343.13;;;-8.22;100.00
28354;BME280;15603;50.878;8.036;2024-01-30T03:33:53;141280.94;;;-8.48;100.00
28354;BME280;15603;50.878;8.036;2024-01-30T03:36:21;141380.28;;;-8.06;100.00
28354;BME280;15603;50.878;8.036;2024-01-30T03:38:48;141382.66;;;-8.05;100.00
28354;BME280;15603;50.878;8.036;2024-01-30T03:41:15;141393.44;;;-8.00;100.00
28354;BME280;15603;50.878;8.036;2024-01-30T03:43:43;141395.81;;;-7.99;100.00
28354;BME280;15603;50.878;8.036;2024-01-30T03:46:11;141391.03;;;-8.01;100.00
28354;BME280;15603;50.878;8.036;2024-01-30T03:48:38;141352.75;;;-8.18;100.00
28354;BME280;15603;50.878;8.036;2024-01-30T03:51:06;141352.75;;;-8.18;100.00
28354;BME280;15603;50.878;8.036;2024-01-30T03:53:33;141328.75;;;-8.28;100.00
28354;BME280;15603;50.878;8.036;2024-01-30T03:56:01;141335.97;;;-8.25;100.00
28354;BME280;15603;50.878;8.036;2024-01-30T03:58:28;141334.78;;;-8.25;100.00
28354;BME280;15603;50.878;8.036;2024-01-30T04:00:55;141343.13;;;-8.22;100.00
28354;BME280;15603;50.878;8.036;2024-01-30T04:03:22;141335.97;;;-8.25;100.00
28354;BME280;15603;50.878;8.036;2024-01-30T04:05:50;141328.75;;;-8.28;100.00
28354;BME280;15603;50.878;8.036;2024-01-30T04:08:18;141315.59;;;-8.34;100.00
28354;BME280;15603;50.878;8.036;2024-01-30T04:10:46;141307.19;;;-8.37;100.00
28354;BME280;15603;50.878;8.036;2024-01-30T04:13:13;141311.97;;;-8.35;100.00
28354;BME280;15603;50.878;8.036;2024-01-30T04:15:40;141288.09;;;-8.45;100.00
28354;BME280;15603;50.878;8.036;2024-01-30T04:18:07;141197.13;;;-8.84;100.00
28354;BME280;15603;50.878;8.036;2024-01-30T04:20:35;141314.41;;;-8.34;100.00
28354;BME280;15603;50.878;8.036;2024-01-30T04:23:02;141333.53;;;-8.26;100.00
28354;BME280;15603;50.878;8.036;2024-01-30T04:25:29;141338.31;;;-8.24;100.00
28354;BME280;15603;50.878;8.036;2024-01-30T04:27:56;141333.53;;;-8.26;100.00
28354;BME280;15603;50.878;8.036;2024-01-30T04:30:23;141338.31;;;-8.24;100.00
28354;BME280;15603;50.878;8.036;2024-01-30T04:32:50;141323.97;;;-8.30;100.00
28354;BME280;15603;50.878;8.036;2024-01-30T04:35:17;141321.59;;;-8.31;100.00
28354;BME280;15603;50.878;8.036;2024-01-30T04:37:44;141318.00;;;-8.33;100.00
28354;BME280;15603;50.878;8.036;2024-01-30T04:40:12;141323.97;;;-8.30;100.00
28354;BME280;15603;50.878;8.036;2024-01-30T04:42:39;141314.41;;;-8.34;100.00
28354;BME280;15603;50.878;8.036;2024-01-30T04:45:06;141304.81;;;-8.38;100.00
28354;BME280;15603;50.878;8.036;2024-01-30T04:47:34;141316.81;;;-8.33;100.00
28354;BME280;15603;50.878;8.036;2024-01-30T04:50:01;141314.41;;;-8.34;100.00
28354;BME280;15603;50.878;8.036;2024-01-30T04:52:31;141302.41;;;-8.39;100.00
28354;BME280;15603;50.878;8.036;2024-01-30T04:54:59;141297.66;;;-8.41;100.00
28354;BME280;15603;50.878;8.036;2024-01-30T04:57:26;141290.50;;;-8.44;100.00
28354;BME280;15603;50.878;8.036;2024-01-30T04:59:53;141290.50;;;-8.44;100.00
28354;BME280;15603;50.878;8.036;2024-01-30T05:02:20;141276.09;;;-8.51;100.00
28354;BME280;15603;50.878;8.036;2024-01-30T05:04:47;141277.34;;;-8.50;100.00
28354;BME280;15603;50.878;8.036;2024-01-30T05:07:15;141271.31;;;-8.53;100.00
28354;BME280;15603;50.878;8.036;2024-01-30T05:09:42;141272.56;;;-8.52;100.00
28354;BME280;15603;50.878;8.036;2024-01-30T05:12:09;141272.56;;;-8.52;100.00
28354;BME280;15603;50.878;8.036;2024-01-30T05:14:36;141277.34;;;-8.50;100.00
28354;BME280;15603;50.878;8.036;2024-01-30T05:17:03;141259.38;;;-8.58;100.00
28354;BME280;15603;50.878;8.036;2024-01-30T05:19:30;141258.16;;;-8.58;100.00
28354;BME280;15603;50.878;8.036;2024-01-30T05:21:58;141256.97;;;-8.59;100.00
28354;BME280;15603;50.878;8.036;2024-01-30T05:24:25;141243.78;;;-8.64;100.00
28354;BME280;15603;50.878;8.036;2024-01-30T05:26:54;141265.34;;;-8.55;100.00
28354;BME280;15603;50.878;8.036;2024-01-30T05:29:21;141260.56;;;-8.57;100.00
28354;BME280;15603;50.878;8.036;2024-01-30T05:31:49;141212.66;;;-8.78;100.00
28354;BME280;15603;50.878;8.036;2024-01-30T05:34:16;141278.53;;;-8.50;100.00
28354;BME280;15603;50.878;8.036;2024-01-30T05:36:43;141326.38;;;-8.29;100.00
28354;BME280;15603;50.878;8.036;2024-01-30T05:39:11;141310.78;;;-8.36;100.00
28354;BME280;15603;50.878;8.036;2024-01-30T05:41:38;141301.22;;;-8.40;100.00
28354;BME280;15603;50.878;8.036;2024-01-30T05:44:05;141309.59;;;-8.36;100.00
28354;BME280;15603;50.878;8.036;2024-01-30T05:46:33;141294.06;;;-8.43;100.00
28354;BME280;15603;50.878;8.036;2024-01-30T05:49:01;141328.75;;;-8.28;100.00
28354;BME280;15603;50.878;8.036;2024-01-30T05:51:28;141307.19;;;-8.37;100.00
28354;BME280;15603;50.878;8.036;2024-01-30T05:53:55;141168.38;;;-8.97;100.00
28354;BME280;15603;50.878;8.036;2024-01-30T05:56:22;141296.47;;;-8.42;100.00
28354;BME280;15603;50.878;8.036;2024-01-30T05:58:49;141291.69;;;-8.44;100.00
28354;BME280;15603;50.878;8.036;2024-01-30T06:01:19;141310.78;;;-8.36;100.00
28354;BME280;15603;50.878;8.036;2024-01-30T06:03:47;141326.38;;;-8.29;100.00
28354;BME280;15603;50.878;8.036;2024-01-30T06:06:14;141340.75;;;-8.23;100.00
28354;BME280;15603;50.878;8.036;2024-01-30T06:08:42;141332.34;;;-8.26;100.00
28354;BME280;15603;50.878;8.036;2024-01-30T06:11:10;141344.34;;;-8.21;100.00
28354;BME280;15603;50.878;8.036;2024-01-30T06:13:39;141343.13;;;-8.22;100.00
28354;BME280;15603;50.878;8.036;2024-01-30T06:16:09;141152.84;;;-9.03;100.00
28354;BME280;15603;50.878;8.036;2024-01-30T06:18:37;141329.94;;;-8.27;100.00
28354;BME280;15603;50.878;8.036;2024-01-30T06:21:05;141321.59;;;-8.31;100.00
28354;BME280;15603;50.878;8.036;2024-01-30T06:23:34;141322.78;;;-8.31;100.00
28354;BME280;15603;50.878;8.036;2024-01-30T06:26:01;141316.81;;;-8.33;100.00
28354;BME280;15603;50.878;8.036;2024-01-30T06:28:28;141319.19;;;-8.32;100.00
28354;BME280;15603;50.878;8.036;2024-01-30T06:30:55;141295.28;;;-8.42;100.00
28354;BME280;15603;50.878;8.036;2024-01-30T06:33:22;141264.16;;;-8.56;100.00
28354;BME280;15603;50.878;8.036;2024-01-30T06:35:49;141264.16;;;-8.56;100.00
28354;BME280;15603;50.878;8.036;2024-01-30T06:38:17;141256.97;;;-8.59;100.00
28354;BME280;15603;50.878;8.036;2024-01-30T06:40:44;141235.41;;;-8.68;100.00
28354;BME280;15603;50.878;8.036;2024-01-30T06:43:11;141245.03;;;-8.64;100.00
28354;BME280;15603;50.878;8.036;2024-01-30T06:45:39;141194.72;;;-8.85;100.00
28354;BME280;15603;50.878;8.036;2024-01-30T06:48:07;141237.81;;;-8.67;100.00
28354;BME280;15603;50.878;8.036;2024-01-30T06:50:34;141144.47;;;-9.07;100.00
28354;BME280;15603;50.878;8.036;2024-01-30T06:53:02;141221.06;;;-8.74;100.00
28354;BME280;15603;50.878;8.036;2024-01-30T06:55:29;141240.19;;;-8.66;100.00
28354;BME280;15603;50.878;8.036;2024-01-30T06:57:56;141247.41;;;-8.63;100.00
28354;BME280;15603;50.878;8.036;2024-01-30T07:00:23;141254.59;;;-8.60;100.00
28354;BME280;15603;50.878;8.036;2024-01-30T07:02:50;141233.03;;;-8.69;100.00
28354;BME280;15603;50.878;8.036;2024-01-30T07:05:18;141185.16;;;-8.90;100.00
28354;BME280;15603;50.878;8.036;2024-01-30T07:07:45;141256.97;;;-8.59;100.00
28354;BME280;15603;50.878;8.036;2024-01-30T07:10:12;141252.19;;;-8.61;100.00
28354;BME280;15603;50.878;8.036;2024-01-30T07:12:40;141236.63;;;-8.67;100.00
28354;BME280;15603;50.878;8.036;2024-01-30T07:15:07;141242.59;;;-8.65;100.00
28354;BME280;15603;50.878;8.036;2024-01-30T07:17:37;141249.81;;;-8.62;100.00
28354;BME280;15603;50.878;8.036;2024-01-30T07:20:05;141258.16;;;-8.58;100.00
28354;BME280;15603;50.878;8.036;2024-01-30T07:22:33;141251.00;;;-8.61;100.00
28354;BME280;15603;50.878;8.036;2024-01-30T07:25:00;141278.53;;;-8.50;100.00
28354;BME280;15603;50.878;8.036;2024-01-30T07:27:28;141300.03;;;-8.40;100.00
28354;BME280;15603;50.878;8.036;2024-01-30T07:29:55;141210.31;;;-8.79;100.00
28354;BME280;15603;50.878;8.036;2024-01-30T07:32:22;141239.00;;;-8.66;100.00
28354;BME280;15603;50.878;8.036;2024-01-30T07:34:50;141338.31;;;-8.24;100.00
28354;BME280;15603;50.878;8.036;2024-01-30T07:37:33;141355.09;;;-8.17;100.00
28354;BME280;15603;50.878;8.036;2024-01-30T07:40:01;141166.00;;;-8.98;100.00
28354;BME280;15603;50.878;8.036;2024-01-30T07:42:29;141364.69;;;-8.13;100.00
28354;BME280;15603;50.878;8.036;2024-01-30T07:44:56;141367.09;;;-8.12;100.00
28354;BME280;15603;50.878;8.036;2024-01-30T07:47:24;141375.50;;;-8.08;100.00
28354;BME280;15603;50.878;8.036;2024-01-30T07:49:51;141318.00;;;-8.33;100.00
28354;BME280;15603;50.878;8.036;2024-01-30T07:52:19;141377.88;;;-8.07;100.00
28354;BME280;15603;50.878;8.036;2024-01-30T07:54:46;141418.56;;;-7.90;100.00
28354;BME280;15603;50.878;8.036;2024-01-30T07:57:14;141414.97;;;-7.91;100.00
28354;BME280;15603;50.878;8.036;2024-01-30T07:59:44;141461.72;;;-7.71;100.00
28354;BME280;15603;50.878;8.036;2024-01-30T08:02:13;141482.06;;;-7.62;100.00
28354;BME280;15603;50.878;8.036;2024-01-30T08:04:40;141489.28;;;-7.59;100.00
28354;BME280;15603;50.878;8.036;2024-01-30T08:07:08;141507.25;;;-7.52;100.00
28354;BME280;15603;50.878;8.036;2024-01-30T08:09:35;141506.06;;;-7.52;100.00
28354;BME280;15603;50.878;8.036;2024-01-30T08:12:03;141516.81;;;-7.47;100.00
28354;BME280;15603;50.878;8.036;2024-01-30T08:14:30;141531.19;;;-7.41;100.00
28354;BME280;15603;50.878;8.036;2024-01-30T08:16:57;141374.25;;;-8.09;100.00
28354;BME280;15603;50.878;8.036;2024-01-30T08:19:24;141575.56;;;-7.22;100.00
28354;BME280;15603;50.878;8.036;2024-01-30T08:21:52;141597.13;;;-7.13;100.00
28354;BME280;15603;50.878;8.036;2024-01-30T08:24:19;141605.53;;;-7.09;100.00
28354;BME280;15603;50.878;8.036;2024-01-30T08:26:46;141633.09;;;-6.98;100.00
28354;BME280;15603;50.878;8.036;2024-01-30T08:29:13;141606.72;;;-7.09;100.00
28354;BME280;15603;50.878;8.036;2024-01-30T08:31:41;141621.09;;;-7.03;100.00
28354;BME280;15603;50.878;8.036;2024-01-30T08:34:08;141640.31;;;-6.95;100.00
28354;BME280;15603;50.878;8.036;2024-01-30T08:36:36;141661.84;;;-6.85;100.00
28354;BME280;15603;50.878;8.036;2024-01-30T08:39:03;141669.06;;;-6.82;100.00
28354;BME280;15603;50.878;8.036;2024-01-30T08:41:32;141694.25;;;-6.72;100.00
28354;BME280;15603;50.878;8.036;2024-01-30T08:43:59;141701.44;;;-6.68;100.00
28354;BME280;15603;50.878;8.036;2024-01-30T08:46:27;141720.59;;;-6.60;100.00
28354;BME280;15603;50.878;8.036;2024-01-30T08:48:54;141717.03;;;-6.62;100.00
28354;BME280;15603;50.878;8.036;2024-01-30T08:51:21;141741.00;;;-6.52;100.00
28354;BME280;15603;50.878;8.036;2024-01-30T08:53:48;141767.41;;;-6.40;100.00
28354;BME280;15603;50.878;8.036;2024-01-30T08:56:16;141769.78;;;-6.39;100.00
28354;BME280;15603;50.878;8.036;2024-01-30T08:58:44;141812.97;;;-6.21;100.00
28354;BME280;15603;50.878;8.036;2024-01-30T09:01:12;141836.97;;;-6.10;100.00
28354;BME280;15603;50.878;8.036;2024-01-30T09:03:39;141896.94;;;-5.85;100.00
28354;BME280;15603;50.878;8.036;2024-01-30T09:06:11;141917.31;;;-5.76;100.00
28354;BME280;15603;50.878;8.036;2024-01-30T09:08:39;141964.16;;;-5.56;100.00
28354;BME280;15603;50.878;8.036;2024-01-30T09:11:13;141941.31;;;-5.66;100.00
28354;BME280;15603;50.878;8.036;2024-01-30T09:13:41;141966.53;;;-5.55;100.00
28354;BME280;15603;50.878;8.036;2024-01-30T09:16:08;141983.34;;;-5.48;100.00
28354;BME280;15603;50.878;8.036;2024-01-30T09:18:35;141965.34;;;-5.56;100.00
28354;BME280;15603;50.878;8.036;2024-01-30T09:21:03;141976.13;;;-5.51;100.00
28354;BME280;15603;50.878;8.036;2024-01-30T09:23:30;141986.94;;;-5.46;100.00
28354;BME280;15603;50.878;8.036;2024-01-30T09:25:57;141970.13;;;-5.54;100.00
28354;BME280;15603;50.878;8.036;2024-01-30T09:28:24;141991.75;;;-5.44;100.00
28354;BME280;15603;50.878;8.036;2024-01-30T09:30:53;141968.94;;;-5.54;100.00
28354;BME280;15603;50.878;8.036;2024-01-30T09:33:21;141983.34;;;-5.48;100.00
28354;BME280;15603;50.878;8.036;2024-01-30T09:35:48;141978.53;;;-5.50;100.00
28354;BME280;15603;50.878;8.036;2024-01-30T09:38:15;141974.94;;;-5.52;100.00
28354;BME280;15603;50.878;8.036;2024-01-30T09:40:42;142002.53;;;-5.40;100.00
28354;BME280;15603;50.878;8.036;2024-01-30T09:43:15;142003.72;;;-5.39;100.00
28354;BME280;15603;50.878;8.036;2024-01-30T09:45:44;142028.94;;;-5.28;100.00
28354;BME280;15603;50.878;8.036;2024-01-30T09:48:13;142031.31;;;-5.27;100.00
28354;BME280;15603;50.878;8.036;2024-01-30T09:50:42;142040.97;;;-5.23;100.00
28354;BME280;15603;50.878;8.036;2024-01-30T09:53:09;142111.78;;;-4.93;100.00
28354;BME280;15603;50.878;8.036;2024-01-30T09:55:36;142113.03;;;-4.93;100.00
28354;BME280;15603;50.878;8.036;2024-01-30T09:58:05;142135.84;;;-4.83;100.00
28354;BME280;15603;50.878;8.036;2024-01-30T10:00:32;142159.84;;;-4.72;100.00
28354;BME280;15603;50.878;8.036;2024-01-30T10:03:00;142197.06;;;-4.57;100.00
28354;BME280;15603;50.878;8.036;2024-01-30T10:05:27;142252.31;;;-4.33;100.00
28354;BME280;15603;50.878;8.036;2024-01-30T10:07:56;142254.75;;;-4.32;100.00
28354;BME280;15603;50.878;8.036;2024-01-30T10:10:24;142273.97;;;-4.24;100.00
28354;BME280;15603;50.878;8.036;2024-01-30T10:12:51;142241.53;;;-4.38;100.00
28354;BME280;15603;50.878;8.036;2024-01-30T10:15:23;142216.28;;;-4.48;100.00
28354;BME280;15603;50.878;8.036;2024-01-30T10:17:56;142278.75;;;-4.22;100.00
28354;BME280;15603;50.878;8.036;2024-01-30T10:20:24;142288.38;;;-4.18;100.00
28354;BME280;15603;50.878;8.036;2024-01-30T10:22:52;142295.59;;;-4.15;100.00
28354;BME280;15603;50.878;8.036;2024-01-30T10:25:21;142348.50;;;-3.92;100.00
28354;BME280;15603;50.878;8.036;2024-01-30T10:27:53;142310.00;;;-4.08;100.00
28354;BME280;15603;50.878;8.036;2024-01-30T10:30:22;142406.19;;;-3.67;100.00
28354;BME280;15603;50.878;8.036;2024-01-30T10:32:50;142444.66;;;-3.51;100.00
28354;BME280;15603;50.878;8.036;2024-01-30T10:35:18;142435.03;;;-3.55;100.00
28354;BME280;15603;50.878;8.036;2024-01-30T10:37:49;142343.69;;;-3.94;100.00
28354;BME280;15603;50.878;8.036;2024-01-30T10:40:16;142485.53;;;-3.33;100.00
28354;BME280;15603;50.878;8.036;2024-01-30T10:42:45;142526.41;;;-3.16;100.00
28354;BME280;15603;50.878;8.036;2024-01-30T10:45:14;142585.34;;;-2.91;100.00
28354;BME280;15603;50.878;8.036;2024-01-30T10:47:50;142546.88;;;-3.07;100.00
28354;BME280;15603;50.878;8.036;2024-01-30T10:50:17;142580.53;;;-2.93;100.00
28354;BME280;15603;50.878;8.036;2024-01-30T10:52:47;142585.34;;;-2.91;100.00
28354;BME280;15603;50.878;8.036;2024-01-30T10:55:15;142531.22;;;-3.14;100.00
28354;BME280;15603;50.878;8.036;2024-01-30T10:57:43;142590.16;;;-2.89;100.00
28354;BME280;15603;50.878;8.036;2024-01-30T11:00:13;142610.63;;;-2.80;100.00
28354;BME280;15603;50.878;8.036;2024-01-30T11:02:44;142637.13;;;-2.69;100.00
28354;BME280;15603;50.878;8.036;2024-01-30T11:05:12;142536.03;;;-3.12;100.00
28354;BME280;15603;50.878;8.036;2024-01-30T11:07:40;142667.16;;;-2.56;100.00
28354;BME280;15603;50.878;8.036;2024-01-30T11:10:11;142670.78;;;-2.54;100.00
28354;BME280;15603;50.878;8.036;2024-01-30T11:12:42;142678.03;;;-2.51;100.00
28354;BME280;15603;50.878;8.036;2024-01-30T11:15:15;142696.06;;;-2.44;100.00
28354;BME280;15603;50.878;8.036;2024-01-30T11:20:36;142733.38;;;-2.28;100.00
28354;BME280;15603;50.878;8.036;2024-01-30T11:23:03;142767.09;;;-2.13;100.00
28354;BME280;15603;50.878;8.036;2024-01-30T11:25:34;142641.91;;;-2.67;100.00
28354;BME280;15603;50.878;8.036;2024-01-30T11:28:01;142777.91;;;-2.09;100.00
28354;BME280;15603;50.878;8.036;2024-01-30T11:30:32;142808.03;;;-1.96;100.00
28354;BME280;15603;50.878;8.036;2024-01-30T11:33:06;142817.66;;;-1.92;100.00
28354;BME280;15603;50.878;8.036;2024-01-30T11:35:35;142816.47;;;-1.92;100.00
28354;BME280;15603;50.878;8.036;2024-01-30T11:38:04;142858.59;;;-1.74;100.00
28354;BME280;15603;50.878;8.036;2024-01-30T11:40:32;142865.78;;;-1.71;100.00
28354;BME280;15603;50.878;8.036;2024-01-30T11:43:02;142882.66;;;-1.64;100.00
28354;BME280;15603;50.878;8.036;2024-01-30T11:45:31;142906.75;;;-1.54;100.00
28354;BME280;15603;50.878;8.036;2024-01-30T11:47:58;142830.91;;;-1.86;100.00
28354;BME280;15603;50.878;8.036;2024-01-30T11:50:32;142963.34;;;-1.30;100.00
28354;BME280;15603;50.878;8.036;2024-01-30T11:53:00;142971.78;;;-1.26;100.00
28354;BME280;15603;50.878;8.036;2024-01-30T11:55:29;142974.19;;;-1.25;100.00
28354;BME280;15603;50.878;8.036;2024-01-30T11:58:01;142976.59;;;-1.24;100.00
28354;BME280;15603;50.878;8.036;2024-01-30T12:00:28;143032.00;;;-1.01;100.00
28354;BME280;15603;50.878;8.036;2024-01-30T12:02:58;143015.19;;;-1.08;100.00
28354;BME280;15603;50.878;8.036;2024-01-30T12:05:28;143060.97;;;-0.88;100.00
28354;BME280;15603;50.878;8.036;2024-01-30T12:07:56;143087.47;;;-0.77;100.00
28354;BME280;15603;50.878;8.036;2024-01-30T12:10:27;143126.00;;;-0.61;100.00
28354;BME280;15603;50.878;8.036;2024-01-30T12:12:54;143163.38;;;-0.45;100.00
28354;BME280;15603;50.878;8.036;2024-01-30T12:15:22;143118.75;;;-0.64;100.00
28354;BME280;15603;50.878;8.036;2024-01-30T12:17:50;143065.78;;;-0.86;100.00
28354;BME280;15603;50.878;8.036;2024-01-30T12:20:19;143164.59;;;-0.44;100.00
28354;BME280;15603;50.878;8.036;2024-01-30T12:22:48;143145.28;;;-0.52;100.00
28354;BME280;15603;50.878;8.036;2024-01-30T12:25:20;143169.41;;;-0.42;100.00
28354;BME280;15603;50.878;8.036;2024-01-30T12:27:50;143188.69;;;-0.34;100.00
28354;BME280;15603;50.878;8.036;2024-01-30T12:30:19;143200.78;;;-0.29;100.00
28354;BME280;15603;50.878;8.036;2024-01-30T12:32:49;143227.25;;;-0.17;100.00
28354;BME280;15603;50.878;8.036;2024-01-30T12:35:19;143207.97;;;-0.26;100.00
28354;BME280;15603;50.878;8.036;2024-01-30T12:37:47;143241.75;;;-0.11;100.00
28354;BME280;15603;50.878;8.036;2024-01-30T12:40:15;143222.44;;;-0.20;100.00
28354;BME280;15603;50.878;8.036;2024-01-30T12:42:43;143248.97;;;-0.08;100.00
28354;BME280;15603;50.878;8.036;2024-01-30T12:45:16;143274.31;;;0.03;100.00
28354;BME280;15603;50.878;8.036;2024-01-30T12:47:43;143248.97;;;-0.08;100.00